createdAt,value
2019-01-05T00:00:35.785Z,18.70
2019-01-05T00:03:33.328Z,15.40
2019-01-05T00:06:24.541Z,12.37
2019-01-05T00:09:19.607Z,13.50
2019-01-05T00:12:08.195Z,8.00
2019-01-05T00:15:03.018Z,9.60
2019-01-05T00:18:01.809Z,6.00
2019-01-05T00:20:48.754Z,5.93
2019-01-05T00:23:49.049Z,5.83
2019-01-05T00:26:40.936Z,5.73
2019-01-05T00:29:20.989Z,8.50
2019-01-05T00:32:42.206Z,5.83
2019-01-05T00:35:43.035Z,6.20
2019-01-05T00:38:39.941Z,7.43
2019-01-05T00:41:46.366Z,5.60
2019-01-05T00:44:48.341Z,8.90
2019-01-05T00:47:42.551Z,8.17
2019-01-05T00:50:33.938Z,8.40
2019-01-05T00:53:21.143Z,8.00
2019-01-05T00:56:09.726Z,11.00
2019-01-05T00:58:57.509Z,7.35
2019-01-05T01:01:49.197Z,10.83
2019-01-05T01:04:48.582Z,11.83
2019-01-05T01:07:49.138Z,12.97
2019-01-05T01:10:33.094Z,11.13
2019-01-05T01:13:30.725Z,11.83
2019-01-05T01:16:24.272Z,13.07
2019-01-05T01:19:12.448Z,15.37
2019-01-05T01:21:57.525Z,11.57
2019-01-05T01:24:55.065Z,12.57
2019-01-05T01:27:50.315Z,12.50
2019-01-05T01:30:47.959Z,15.33
2019-01-05T01:33:36.374Z,14.57
2019-01-05T01:36:24.875Z,12.77
2019-01-05T01:39:14.287Z,16.07
2019-01-05T01:42:20.897Z,15.33
2019-01-05T01:45:07.484Z,15.60
2019-01-05T01:48:03.742Z,14.30
2019-01-05T01:50:51.126Z,14.17
2019-01-05T01:53:43.302Z,13.80
2019-01-05T01:56:33.252Z,10.63
2019-01-05T01:59:25.486Z,9.40
2019-01-05T02:02:21.471Z,10.97
2019-01-05T02:05:10.743Z,12.35
2019-01-05T02:08:10.994Z,8.87
2019-01-05T02:11:12.244Z,9.67
2019-01-05T02:14:06.546Z,9.67
2019-01-05T02:17:03.554Z,7.83
2019-01-05T02:20:32.145Z,8.30
2019-01-05T02:24:03.771Z,10.47
2019-01-05T02:27:31.372Z,9.00
2019-01-05T02:30:54.499Z,11.17
2019-01-05T02:34:17.314Z,9.97
2019-01-05T02:37:42.120Z,10.87
2019-01-05T02:41:30.997Z,15.80
2019-01-05T02:44:53.096Z,10.70
2019-01-05T02:48:27.057Z,13.50
2019-01-05T02:52:11.417Z,14.13
2019-01-05T02:55:44.588Z,12.03
2019-01-05T02:59:20.980Z,13.03
2019-01-05T03:02:49.472Z,10.73
2019-01-05T03:06:21.300Z,7.00
2019-01-05T03:10:03.673Z,9.77
2019-01-05T03:13:54.460Z,6.70
2019-01-05T03:17:10.154Z,6.97
2019-01-05T03:20:18.918Z,9.87
2019-01-05T03:24:11.962Z,7.75
2019-01-05T03:27:42.622Z,6.23
2019-01-05T03:31:44.613Z,6.27
2019-01-05T03:35:29.048Z,8.60
2019-01-05T03:38:57.681Z,7.87
2019-01-05T03:42:37.467Z,6.37
2019-01-05T03:46:02.582Z,7.97
2019-01-05T03:49:35.236Z,6.77
2019-01-05T03:53:19.488Z,3.80
2019-01-05T03:56:54.207Z,3.23
2019-01-05T04:00:25.028Z,6.45
2019-01-05T04:03:51.332Z,5.95
2019-01-05T04:07:21.045Z,5.07
2019-01-05T04:10:39.427Z,4.45
2019-01-05T04:14:31.073Z,5.23
2019-01-05T04:18:01.170Z,5.22
2019-01-05T04:21:20.317Z,3.83
2019-01-05T04:24:51.059Z,6.33
2019-01-05T04:28:27.611Z,5.05
2019-01-05T04:32:05.495Z,5.73
2019-01-05T04:35:49.629Z,3.43
2019-01-05T04:39:19.661Z,5.43
2019-01-05T04:43:03.141Z,4.43
2019-01-05T04:46:26.709Z,5.07
2019-01-05T04:49:56.422Z,3.93
2019-01-05T04:53:45.576Z,7.10
2019-01-05T04:57:12.407Z,6.95
2019-01-05T05:00:46.541Z,4.37
2019-01-05T05:04:13.445Z,3.97
2019-01-05T05:07:41.797Z,5.43
2019-01-05T05:11:30.552Z,5.37
2019-01-05T05:15:08.425Z,5.77
2019-01-05T05:18:30.205Z,5.07
2019-01-05T05:21:52.670Z,5.50
2019-01-05T05:25:29.406Z,5.03
2019-01-05T05:29:20.812Z,3.93
2019-01-05T05:32:50.525Z,6.27
2019-01-05T05:36:27.473Z,7.07
2019-01-05T05:39:56.921Z,4.73
2019-01-05T05:43:34.494Z,6.17
2019-01-05T05:47:05.520Z,5.27
2019-01-05T05:50:49.780Z,5.20
2019-01-05T05:54:05.299Z,8.33
2019-01-05T05:57:30.243Z,8.50
2019-01-05T06:01:01.019Z,6.20
2019-01-05T06:04:20.361Z,7.97
2019-01-05T06:07:58.448Z,6.30
2019-01-05T06:11:37.747Z,4.90
2019-01-05T06:15:00.101Z,6.40
2019-01-05T06:18:36.345Z,4.63
2019-01-05T06:22:12.933Z,6.17
2019-01-05T06:25:35.319Z,6.57
2019-01-05T06:29:25.019Z,5.97
2019-01-05T06:32:57.574Z,7.23
2019-01-05T06:36:23.157Z,6.90
2019-01-05T06:39:46.258Z,7.80
2019-01-05T06:43:33.043Z,5.58
2019-01-05T06:47:22.759Z,7.53
2019-01-05T06:50:49.041Z,6.90
2019-01-05T06:54:12.535Z,5.00
2019-01-05T06:57:53.644Z,6.50
2019-01-05T07:01:23.634Z,5.67
2019-01-05T07:04:47.475Z,6.93
2019-01-05T07:08:23.231Z,7.10
2019-01-05T07:11:52.155Z,5.80
2019-01-05T07:15:27.378Z,9.67
2019-01-05T07:18:46.410Z,7.20
2019-01-05T07:22:15.949Z,7.45
2019-01-05T07:26:08.262Z,8.20
2019-01-05T07:29:41.509Z,9.83
2019-01-05T07:33:25.599Z,8.83
2019-01-05T07:36:48.193Z,12.27
2019-01-05T07:40:15.166Z,8.77
2019-01-05T07:44:11.042Z,11.37
2019-01-05T07:47:37.045Z,8.70
2019-01-05T07:51:24.278Z,7.70
2019-01-05T07:54:46.274Z,11.93
2019-01-05T07:58:39.720Z,10.83
2019-01-05T08:02:11.963Z,14.93
2019-01-05T08:06:02.205Z,12.17
2019-01-05T08:09:40.332Z,13.87
2019-01-05T08:13:02.920Z,15.87
2019-01-05T08:16:26.114Z,12.53
2019-01-05T08:20:16.271Z,12.33
2019-01-05T08:23:42.375Z,12.88
2019-01-05T08:27:13.314Z,9.80
2019-01-05T08:30:31.969Z,16.00
2019-01-05T08:34:34.165Z,12.70
2019-01-05T08:38:10.012Z,15.47
2019-01-05T08:41:52.873Z,10.73
2019-01-05T08:45:16.369Z,14.20
2019-01-05T08:48:51.140Z,13.32
2019-01-05T08:52:29.443Z,16.73
2019-01-05T08:56:32.179Z,19.70
2019-01-05T08:59:57.349Z,16.83
2019-01-05T09:03:36.628Z,15.57
2019-01-05T09:07:19.356Z,15.07
2019-01-05T09:10:34.283Z,16.40
2019-01-05T09:13:55.404Z,14.47
2019-01-05T09:17:44.414Z,12.97
2019-01-05T09:21:26.383Z,19.23
2019-01-05T09:24:48.806Z,14.33
2019-01-05T09:28:33.714Z,18.37
2019-01-05T09:32:03.661Z,17.80
2019-01-05T09:35:34.384Z,18.35
2019-01-05T09:38:55.637Z,15.37
2019-01-05T09:42:14.003Z,14.57
2019-01-05T09:46:00.016Z,17.20
2019-01-05T09:49:39.869Z,16.40
2019-01-05T09:53:39.551Z,18.13
2019-01-05T09:57:02.870Z,16.00
2019-01-05T10:00:30.414Z,17.57
2019-01-05T10:04:08.529Z,17.00
2019-01-05T10:07:57.317Z,20.50
2019-01-05T10:11:29.743Z,17.53
2019-01-05T10:14:53.470Z,21.37
2019-01-05T10:18:25.809Z,17.37
2019-01-05T10:21:45.740Z,16.93
2019-01-05T10:25:08.213Z,18.03
2019-01-05T10:28:52.619Z,18.17
2019-01-05T10:32:20.559Z,19.23
2019-01-05T10:35:53.654Z,20.50
2019-01-05T10:39:21.320Z,14.33
2019-01-05T10:43:08.289Z,16.73
2019-01-05T10:46:54.034Z,15.60
2019-01-05T10:50:35.398Z,16.93
2019-01-05T10:54:01.652Z,19.67
2019-01-05T10:57:54.696Z,17.07
2019-01-05T11:01:05.814Z,16.50
2019-01-05T11:04:44.413Z,18.03
2019-01-05T11:08:28.710Z,14.27
2019-01-05T11:12:06.347Z,16.07
2019-01-05T11:15:52.305Z,17.93
2019-01-05T11:19:31.404Z,18.90
2019-01-05T11:23:01.833Z,22.37
2019-01-05T11:26:39.757Z,23.30
2019-01-05T11:30:29.786Z,15.27
2019-01-05T11:34:14.424Z,23.32
2019-01-05T11:37:49.741Z,17.73
2019-01-05T11:41:33.459Z,24.20
2019-01-05T11:45:16.164Z,16.83
2019-01-05T11:48:58.245Z,23.20
2019-01-05T11:52:23.327Z,17.27
2019-01-05T11:55:57.159Z,19.47
2019-01-05T11:59:14.726Z,22.97
2019-01-05T12:02:33.697Z,20.43
2019-01-05T12:05:58.433Z,22.83
2019-01-05T12:09:22.394Z,18.27
2019-01-05T12:12:44.398Z,20.07
2019-01-05T12:16:22.049Z,24.67
2019-01-05T12:20:21.753Z,18.50
2019-01-05T12:24:00.901Z,16.90
2019-01-05T12:27:52.693Z,19.43
2019-01-05T12:31:32.162Z,19.12
2019-01-05T12:34:53.984Z,20.80
2019-01-05T12:38:33.728Z,20.83
2019-01-05T12:42:11.597Z,17.98
2019-01-05T12:45:25.074Z,23.37
2019-01-05T12:49:02.275Z,17.73
2019-01-05T12:52:27.854Z,26.10
2019-01-05T12:56:01.185Z,20.97
2019-01-05T12:59:58.932Z,22.40
2019-01-05T13:03:26.319Z,25.27
2019-01-05T13:07:11.972Z,29.80
2019-01-05T13:10:52.952Z,27.30
2019-01-05T13:14:43.395Z,20.20
2019-01-05T13:18:01.528Z,20.83
2019-01-05T13:21:42.202Z,23.33
2019-01-05T13:25:13.668Z,30.17
2019-01-05T13:28:28.628Z,26.63
2019-01-05T13:32:05.733Z,24.60
2019-01-05T13:35:41.338Z,25.83
2019-01-05T13:39:07.019Z,26.30
2019-01-05T13:42:30.446Z,21.87
2019-01-05T13:46:17.595Z,22.53
2019-01-05T13:49:41.139Z,26.50
2019-01-05T13:52:52.330Z,19.47
2019-01-05T13:56:01.187Z,24.33
2019-01-05T13:58:47.921Z,25.53
2019-01-05T14:01:32.927Z,30.10
2019-01-05T14:04:27.139Z,27.47
2019-01-05T14:07:30.958Z,29.40
2019-01-05T14:10:31.267Z,29.53
2019-01-05T14:13:19.676Z,25.97
2019-01-05T14:16:19.731Z,26.77
2019-01-05T14:19:20.249Z,22.30
2019-01-05T14:22:03.426Z,22.95
2019-01-05T14:25:00.733Z,28.83
2019-01-05T14:28:06.566Z,27.17
2019-01-05T14:30:58.253Z,22.73
2019-01-05T14:33:52.447Z,27.98
2019-01-05T14:36:43.948Z,24.50
2019-01-05T14:39:44.287Z,25.30
2019-01-05T14:42:32.912Z,19.13
2019-01-05T14:45:22.428Z,27.53
2019-01-05T14:48:16.971Z,27.97
2019-01-05T14:51:17.675Z,24.85
2019-01-05T14:54:02.068Z,23.70
2019-01-05T14:56:48.839Z,23.67
2019-01-05T14:59:37.219Z,22.27
2019-01-05T15:02:31.456Z,23.20
2019-01-05T15:05:18.258Z,23.97
2019-01-05T15:08:09.451Z,22.07
2019-01-05T15:11:00.722Z,22.07
2019-01-05T15:13:51.868Z,21.43
2019-01-05T15:16:40.240Z,25.37
2019-01-05T15:19:28.549Z,26.60
2019-01-05T15:22:26.107Z,21.07
2019-01-05T15:25:13.123Z,25.33
2019-01-05T15:28:01.581Z,26.43
2019-01-05T15:30:56.000Z,21.43
2019-01-05T15:33:54.052Z,26.97
2019-01-05T15:36:40.795Z,27.17
2019-01-05T15:39:47.475Z,26.17
2019-01-05T15:42:34.322Z,22.77
2019-01-05T15:45:19.304Z,29.87
2019-01-05T15:48:07.665Z,25.33
2019-01-05T15:50:54.853Z,29.87
2019-01-05T15:53:41.713Z,22.77
2019-01-05T15:56:29.084Z,24.30
2019-01-05T15:59:15.849Z,28.25
2019-01-05T16:02:19.215Z,25.43
2019-01-05T16:05:13.193Z,26.33
2019-01-05T16:08:10.830Z,27.43
2019-01-05T16:11:02.121Z,24.93
2019-01-05T16:14:02.333Z,22.73
2019-01-05T16:16:49.389Z,26.23
2019-01-05T16:19:36.323Z,28.47
2019-01-05T16:22:36.733Z,26.30
2019-01-05T16:25:31.341Z,25.23
2019-01-05T16:28:11.854Z,23.97
2019-01-05T16:31:09.259Z,24.93
2019-01-05T16:33:56.324Z,34.23
2019-01-05T16:36:53.639Z,32.70
2019-01-05T16:39:40.386Z,24.23
2019-01-05T16:42:27.296Z,24.40
2019-01-05T16:45:14.180Z,30.10
2019-01-05T16:48:05.306Z,29.17
2019-01-05T16:50:56.687Z,27.43
2019-01-05T16:54:02.155Z,25.80
2019-01-05T16:57:05.692Z,27.87
2019-01-05T16:59:52.273Z,21.47
2019-01-05T17:02:40.773Z,27.83
2019-01-05T17:05:32.110Z,23.63
2019-01-05T17:08:23.447Z,22.67
2019-01-05T17:11:10.524Z,26.27
2019-01-05T17:13:58.824Z,25.17
2019-01-05T17:16:46.002Z,26.97
2019-01-05T17:19:36.466Z,24.87
2019-01-05T17:22:21.276Z,26.17
2019-01-05T17:25:12.682Z,26.87
2019-01-05T17:28:11.123Z,25.07
2019-01-05T17:30:57.784Z,22.77
2019-01-05T17:33:44.401Z,23.03
2019-01-05T17:36:32.727Z,24.33
2019-01-05T17:39:26.535Z,21.03
2019-01-05T17:42:20.684Z,23.90
2019-01-05T17:45:07.597Z,22.67
2019-01-05T17:48:11.147Z,24.37
2019-01-05T17:50:57.694Z,23.80
2019-01-05T17:53:52.245Z,21.77
2019-01-05T17:56:43.488Z,22.90
2019-01-05T17:59:40.879Z,21.97
2019-01-05T18:02:35.354Z,22.17
2019-01-05T18:05:29.728Z,23.57
2019-01-05T18:08:27.626Z,17.02
2019-01-05T18:11:34.129Z,26.37
2019-01-05T18:14:34.068Z,27.47
2019-01-05T18:17:28.626Z,23.97
2019-01-05T18:20:15.852Z,24.77
2019-01-05T18:23:05.052Z,25.03
2019-01-05T18:25:52.014Z,27.13
2019-01-05T18:28:39.021Z,25.62
2019-01-05T18:31:37.255Z,27.07
2019-01-05T18:34:24.016Z,26.87
2019-01-05T18:37:15.462Z,25.90
2019-01-05T18:40:15.733Z,26.50
2019-01-05T18:43:13.010Z,25.77
2019-01-05T18:46:02.690Z,21.47
2019-01-05T18:48:45.647Z,22.43
2019-01-05T18:51:32.745Z,29.00
2019-01-05T18:54:19.856Z,30.57
2019-01-05T18:57:08.161Z,23.20
2019-01-05T18:59:54.589Z,20.00
2019-01-05T19:02:42.937Z,28.80
2019-01-05T19:05:29.721Z,24.33
2019-01-05T19:08:18.213Z,24.57
2019-01-05T19:11:09.791Z,23.93
2019-01-05T19:13:56.525Z,23.77
2019-01-05T19:17:03.045Z,22.57
2019-01-05T19:19:49.031Z,26.05
2019-01-05T19:22:35.664Z,22.50
2019-01-05T19:25:27.390Z,29.27
2019-01-05T19:28:15.768Z,25.57
2019-01-05T19:31:02.479Z,26.03
2019-01-05T19:34:03.498Z,22.50
2019-01-05T19:36:50.292Z,27.50
2019-01-05T19:39:50.726Z,26.83
2019-01-05T19:42:54.250Z,26.57
2019-01-05T19:45:41.371Z,25.77
2019-01-05T19:48:28.106Z,29.37
2019-01-05T19:51:14.321Z,30.60
2019-01-05T19:54:05.826Z,29.53
2019-01-05T19:57:09.467Z,33.37
2019-01-05T19:59:56.159Z,31.60
2019-01-05T20:02:43.277Z,30.63
2019-01-05T20:05:37.676Z,35.47
2019-01-05T20:08:24.685Z,29.30
2019-01-05T20:11:11.468Z,36.40
2019-01-05T20:13:59.950Z,36.87
2019-01-05T20:16:46.931Z,39.17
2019-01-05T20:19:38.754Z,34.20
2019-01-05T20:22:25.623Z,36.07
2019-01-05T20:25:14.067Z,37.27
2019-01-05T20:28:02.372Z,40.60
2019-01-05T20:30:49.278Z,28.40
2019-01-05T20:33:37.576Z,34.57
2019-01-05T20:36:24.623Z,36.07
2019-01-05T20:39:19.009Z,33.13
2019-01-05T20:42:07.394Z,32.00
2019-01-05T20:44:54.336Z,31.50
2019-01-05T20:47:58.181Z,28.03
2019-01-05T20:50:43.875Z,34.83
2019-01-05T20:53:44.478Z,29.40
2019-01-05T20:56:42.023Z,33.83
2019-01-05T20:59:33.546Z,36.97
2019-01-05T21:02:29.141Z,37.57
2019-01-05T21:05:15.872Z,26.73
2019-01-05T21:08:04.184Z,31.03
2019-01-05T21:10:59.770Z,32.53
2019-01-05T21:13:46.858Z,26.27
2019-01-05T21:16:47.756Z,29.70
2019-01-05T21:19:39.588Z,32.58
2019-01-05T21:22:43.034Z,34.77
2019-01-05T21:25:29.840Z,35.63
2019-01-05T21:28:21.602Z,39.00
2019-01-05T21:31:09.957Z,35.83
2019-01-05T21:33:57.272Z,33.17
2019-01-05T21:36:44.568Z,35.80
2019-01-05T21:39:41.875Z,29.93
2019-01-05T21:42:28.815Z,27.53
2019-01-05T21:45:15.964Z,31.50
2019-01-05T21:48:02.626Z,31.20
2019-01-05T21:50:49.894Z,29.00
2019-01-05T21:53:48.052Z,33.40
2019-01-05T21:56:34.022Z,32.80
2019-01-05T21:59:25.106Z,32.80
2019-01-05T22:02:20.387Z,31.47
2019-01-05T22:05:19.767Z,35.63
2019-01-05T22:08:14.328Z,30.23
2019-01-05T22:11:03.231Z,27.77
2019-01-05T22:13:51.774Z,32.37
2019-01-05T22:16:53.717Z,31.73
2019-01-05T22:19:40.253Z,36.33
2019-01-05T22:22:28.554Z,34.63
2019-01-05T22:25:31.962Z,37.17
2019-01-05T22:28:22.815Z,28.57
2019-01-05T22:31:11.189Z,36.93
2019-01-05T22:34:14.633Z,29.80
2019-01-05T22:37:03.077Z,32.53
2019-01-05T22:39:49.840Z,38.47
2019-01-05T22:42:53.106Z,34.10
2019-01-05T22:45:50.050Z,37.70
2019-01-05T22:48:37.156Z,33.13
2019-01-05T22:51:28.604Z,38.30
2019-01-05T22:54:15.452Z,35.07
2019-01-05T22:57:09.929Z,28.23
2019-01-05T23:00:04.555Z,31.67
2019-01-05T23:02:53.293Z,31.70
2019-01-05T23:05:37.357Z,32.13
2019-01-05T23:08:19.001Z,34.97
2019-01-05T23:11:04.724Z,34.57
2019-01-05T23:13:51.791Z,35.33
2019-01-05T23:16:40.224Z,34.23
2019-01-05T23:19:40.963Z,28.60
2019-01-05T23:22:23.644Z,21.60
2019-01-05T23:25:05.613Z,23.50
2019-01-05T23:28:06.028Z,18.90
2019-01-05T23:30:53.085Z,21.33
2019-01-05T23:33:59.498Z,26.67
2019-01-05T23:36:53.801Z,19.93
2019-01-05T23:40:00.156Z,17.63
2019-01-05T23:42:54.297Z,16.90
2019-01-05T23:45:41.647Z,16.07
2019-01-05T23:48:27.109Z,16.07
2019-01-05T23:51:18.387Z,15.47
2019-01-05T23:54:05.430Z,17.80
2019-01-05T23:56:52.341Z,14.00
2019-01-05T23:59:49.444Z,13.40
